createdAt,value
2023-05-14T00:00:33.299Z,147.87
2023-05-14T00:01:33.325Z,147.84
2023-05-14T00:02:33.429Z,147.94
2023-05-14T00:03:33.483Z,146.58
2023-05-14T00:04:33.697Z,147.55
2023-05-14T00:05:33.605Z,148.16
2023-05-14T00:06:33.602Z,145.93
2023-05-14T00:07:34.381Z,147.65
2023-05-14T00:08:33.712Z,146.70
2023-05-14T00:09:33.795Z,148.72
2023-05-14T00:10:33.834Z,147.70
2023-05-14T00:11:33.900Z,149.46
2023-05-14T00:12:33.976Z,145.68
2023-05-14T00:13:33.997Z,146.80
2023-05-14T00:14:34.432Z,147.53
2023-05-14T00:15:34.857Z,145.55
2023-05-14T00:16:34.229Z,146.86
2023-05-14T00:17:34.296Z,145.09
2023-05-14T00:18:34.322Z,145.42
2023-05-14T00:19:34.799Z,147.87
2023-05-14T00:20:35.376Z,146.55
2023-05-14T00:21:34.484Z,145.31
2023-05-14T00:22:34.594Z,145.95
2023-05-14T00:23:34.588Z,145.64
2023-05-14T00:24:34.663Z,145.53
2023-05-14T00:25:35.379Z,144.72
2023-05-14T00:26:34.768Z,144.44
2023-05-14T00:27:34.827Z,145.87
2023-05-14T00:28:34.852Z,144.32
2023-05-14T00:29:35.385Z,144.36
2023-05-14T00:30:34.967Z,145.08
2023-05-14T00:31:35.080Z,144.06
2023-05-14T00:32:35.134Z,146.30
2023-05-14T00:33:35.171Z,143.53
2023-05-14T00:34:35.217Z,144.35
2023-05-14T00:35:35.412Z,145.15
2023-05-14T00:36:35.383Z,143.29
2023-05-14T00:37:35.404Z,144.76
2023-05-14T00:38:35.471Z,145.37
2023-05-14T00:39:35.519Z,141.67
2023-05-14T00:40:35.597Z,142.91
2023-05-14T00:41:35.655Z,144.75
2023-05-14T00:42:35.710Z,142.31
2023-05-14T00:43:35.783Z,144.29
2023-05-14T00:44:35.800Z,145.16
2023-05-14T00:45:35.877Z,142.31
2023-05-14T00:46:36.932Z,142.20
2023-05-14T00:47:36.004Z,142.00
2023-05-14T00:48:36.038Z,142.03
2023-05-14T00:49:36.162Z,143.84
2023-05-14T00:50:36.987Z,143.55
2023-05-14T00:51:36.237Z,143.34
2023-05-14T00:52:36.322Z,141.82
2023-05-14T00:53:36.388Z,144.14
2023-05-14T00:54:36.444Z,144.64
2023-05-14T00:55:36.917Z,142.98
2023-05-14T00:56:36.552Z,142.23
2023-05-14T00:57:36.608Z,144.24
2023-05-14T00:58:36.656Z,144.66
2023-05-14T00:59:36.731Z,144.61
2023-05-14T01:00:36.839Z,143.86
2023-05-14T01:01:37.405Z,142.42
2023-05-14T01:02:37.031Z,143.38
2023-05-14T01:03:37.034Z,143.32
2023-05-14T01:04:37.009Z,143.95
2023-05-14T01:05:37.052Z,143.88
2023-05-14T01:06:37.132Z,142.06
2023-05-14T01:07:37.201Z,142.55
2023-05-14T01:08:37.228Z,141.02
2023-05-14T01:09:37.285Z,141.53
2023-05-14T01:10:37.430Z,144.47
2023-05-14T01:11:37.446Z,140.80
2023-05-14T01:12:37.437Z,142.40
2023-05-14T01:13:37.552Z,141.52
2023-05-14T01:14:37.558Z,142.58
2023-05-14T01:15:37.936Z,140.72
2023-05-14T01:16:37.740Z,144.56
2023-05-14T01:17:37.798Z,140.73
2023-05-14T01:18:37.884Z,141.95
2023-05-14T01:19:37.801Z,141.41
2023-05-14T01:20:37.901Z,140.15
2023-05-14T01:21:37.955Z,141.50
2023-05-14T01:22:37.978Z,140.56
2023-05-14T01:23:38.072Z,143.92
2023-05-14T01:24:38.130Z,144.04
2023-05-14T01:25:38.429Z,143.56
2023-05-14T01:26:38.276Z,140.60
2023-05-14T01:27:38.243Z,142.67
2023-05-14T01:28:38.303Z,142.46
2023-05-14T01:29:38.343Z,142.12
2023-05-14T01:30:38.427Z,143.75
2023-05-14T01:31:38.536Z,141.82
2023-05-14T01:32:38.505Z,141.64
2023-05-14T01:33:38.554Z,140.83
2023-05-14T01:34:38.614Z,141.62
2023-05-14T01:35:38.924Z,140.96
2023-05-14T01:36:38.779Z,141.68
2023-05-14T01:37:38.789Z,140.10
2023-05-14T01:38:38.801Z,140.71
2023-05-14T01:39:38.898Z,142.79
2023-05-14T01:40:38.931Z,140.69
2023-05-14T01:41:38.971Z,139.55
2023-05-14T01:42:39.017Z,142.25
2023-05-14T01:43:39.131Z,142.11
2023-05-14T01:44:39.150Z,140.14
2023-05-14T01:45:39.204Z,141.45
2023-05-14T01:46:39.274Z,140.32
2023-05-14T01:47:39.315Z,139.01
2023-05-14T01:48:39.360Z,139.83
2023-05-14T01:49:39.423Z,138.34
2023-05-14T01:50:39.470Z,140.71
2023-05-14T01:51:39.488Z,141.02
2023-05-14T01:52:39.554Z,139.55
2023-05-14T01:53:40.637Z,140.94
2023-05-14T01:54:39.655Z,140.19
2023-05-14T01:55:39.941Z,142.50
2023-05-14T01:56:40.502Z,139.47
2023-05-14T01:57:39.846Z,141.04
2023-05-14T01:58:39.888Z,140.71
2023-05-14T01:59:39.946Z,141.20
2023-05-14T02:00:40.009Z,139.37
2023-05-14T02:01:40.198Z,141.11
2023-05-14T02:02:40.163Z,139.97
2023-05-14T02:03:40.172Z,143.62
2023-05-14T02:04:40.206Z,141.48
2023-05-14T02:05:40.960Z,138.53
2023-05-14T02:06:40.339Z,141.02
2023-05-14T02:07:40.415Z,140.28
2023-05-14T02:08:40.472Z,141.87
2023-05-14T02:09:40.493Z,138.31
2023-05-14T02:10:40.936Z,136.19
2023-05-14T02:11:40.607Z,138.99
2023-05-14T02:12:40.703Z,138.84
2023-05-14T02:13:40.746Z,139.40
2023-05-14T02:14:40.781Z,137.74
2023-05-14T02:15:42.491Z,139.89
2023-05-14T02:16:40.946Z,138.14
2023-05-14T02:17:40.969Z,138.18
2023-05-14T02:18:41.050Z,139.82
2023-05-14T02:19:41.084Z,136.84
2023-05-14T02:20:41.161Z,137.08
2023-05-14T02:21:41.208Z,139.20
2023-05-14T02:22:41.240Z,139.05
2023-05-14T02:23:42.224Z,137.61
2023-05-14T02:24:41.387Z,138.61
2023-05-14T02:25:41.443Z,136.69
2023-05-14T02:26:41.518Z,134.80
2023-05-14T02:27:41.547Z,138.68
2023-05-14T02:28:41.638Z,138.27
2023-05-14T02:29:42.520Z,138.49
2023-05-14T02:30:41.958Z,138.62
2023-05-14T02:31:41.630Z,138.18
2023-05-14T02:32:41.765Z,139.29
2023-05-14T02:33:42.648Z,138.56
2023-05-14T02:34:41.606Z,138.73
2023-05-14T02:35:41.945Z,139.23
2023-05-14T02:36:41.541Z,139.26
2023-05-14T02:37:41.547Z,139.94
2023-05-14T02:38:41.545Z,137.26
2023-05-14T02:39:41.520Z,137.19
2023-05-14T02:40:41.547Z,138.21
2023-05-14T02:41:41.542Z,139.13
2023-05-14T02:42:41.577Z,138.35
2023-05-14T02:43:41.696Z,136.15
2023-05-14T02:44:41.742Z,137.86
2023-05-14T02:45:41.970Z,140.55
2023-05-14T02:46:41.881Z,138.06
2023-05-14T02:47:41.953Z,136.74
2023-05-14T02:48:41.984Z,137.70
2023-05-14T02:49:42.040Z,136.51
2023-05-14T02:50:42.116Z,137.29
2023-05-14T02:51:42.951Z,139.31
2023-05-14T02:52:42.258Z,137.78
2023-05-14T02:53:42.989Z,136.90
2023-05-14T02:54:42.319Z,140.45
2023-05-14T02:55:42.396Z,137.99
2023-05-14T02:56:42.457Z,140.53
2023-05-14T02:57:42.548Z,138.75
2023-05-14T02:58:42.612Z,137.91
2023-05-14T02:59:42.670Z,139.06
2023-05-14T03:00:42.746Z,137.77
2023-05-14T03:01:42.774Z,137.34
2023-05-14T03:02:42.947Z,139.34
2023-05-14T03:03:42.898Z,135.94
2023-05-14T03:04:42.958Z,136.42
2023-05-14T03:05:43.056Z,139.47
2023-05-14T03:06:43.100Z,139.55
2023-05-14T03:07:43.163Z,137.28
2023-05-14T03:08:43.239Z,137.53
2023-05-14T03:09:43.253Z,137.31
2023-05-14T03:10:43.349Z,138.94
2023-05-14T03:11:43.429Z,137.76
2023-05-14T03:12:43.459Z,136.44
2023-05-14T03:13:43.536Z,136.13
2023-05-14T03:14:43.584Z,138.60
2023-05-14T03:15:43.671Z,136.09
2023-05-14T03:16:43.768Z,136.63
2023-05-14T03:17:43.831Z,137.94
2023-05-14T03:18:43.953Z,137.54
2023-05-14T03:19:43.922Z,141.42
2023-05-14T03:20:44.018Z,136.42
2023-05-14T03:21:44.038Z,139.64
2023-05-14T03:22:44.095Z,140.37
2023-05-14T03:23:44.154Z,137.38
2023-05-14T03:24:44.194Z,138.07
2023-05-14T03:25:44.487Z,138.53
2023-05-14T03:26:44.342Z,136.13
2023-05-14T03:27:44.393Z,138.77
2023-05-14T03:28:44.477Z,139.00
2023-05-14T03:29:44.538Z,137.20
2023-05-14T03:30:45.083Z,137.83
2023-05-14T03:31:44.652Z,137.23
2023-05-14T03:32:44.760Z,140.00
2023-05-14T03:33:44.773Z,139.68
2023-05-14T03:34:44.879Z,139.88
2023-05-14T03:35:44.916Z,139.43
2023-05-14T03:36:44.956Z,138.77
2023-05-14T03:37:45.027Z,136.64
2023-05-14T03:38:45.099Z,137.92
2023-05-14T03:39:45.145Z,138.95
2023-05-14T03:40:45.204Z,140.07
2023-05-14T03:41:45.255Z,139.76
2023-05-14T03:42:45.312Z,137.99
2023-05-14T03:43:45.354Z,135.81
2023-05-14T03:44:45.448Z,138.27
2023-05-14T03:45:45.496Z,139.06
2023-05-14T03:46:45.564Z,139.70
2023-05-14T03:47:45.700Z,140.39
2023-05-14T03:48:45.711Z,139.77
2023-05-14T03:49:45.765Z,140.68
2023-05-14T03:50:45.840Z,140.33
2023-05-14T03:51:45.872Z,137.14
2023-05-14T03:52:45.972Z,139.20
2023-05-14T03:53:45.983Z,138.52
2023-05-14T03:54:46.073Z,141.50
2023-05-14T03:55:46.511Z,139.86
2023-05-14T03:56:46.204Z,137.77
2023-05-14T03:57:46.267Z,134.78
2023-05-14T03:58:46.303Z,134.45
2023-05-14T03:59:46.338Z,137.36
2023-05-14T04:00:46.415Z,139.14
2023-05-14T04:01:46.471Z,135.23
2023-05-14T04:02:46.625Z,134.12
2023-05-14T04:03:46.769Z,138.32
2023-05-14T04:04:46.728Z,136.53
2023-05-14T04:05:46.989Z,136.36
2023-05-14T04:06:46.811Z,136.26
2023-05-14T04:07:46.858Z,134.47
2023-05-14T04:08:46.909Z,137.20
2023-05-14T04:09:46.948Z,133.94
2023-05-14T04:10:47.012Z,135.64
2023-05-14T04:11:47.110Z,135.73
2023-05-14T04:12:47.137Z,136.81
2023-05-14T04:13:47.209Z,133.75
2023-05-14T04:14:47.254Z,134.91
2023-05-14T04:15:47.323Z,133.94
2023-05-14T04:16:47.412Z,136.16
2023-05-14T04:17:47.476Z,134.81
2023-05-14T04:18:47.534Z,136.42
2023-05-14T04:19:47.535Z,137.48
2023-05-14T04:20:47.593Z,134.04
2023-05-14T04:21:47.660Z,134.97
2023-05-14T04:22:47.704Z,135.42
2023-05-14T04:23:47.736Z,134.41
2023-05-14T04:24:47.814Z,138.02
2023-05-14T04:25:47.880Z,136.47
2023-05-14T04:26:47.912Z,135.69
2023-05-14T04:27:47.978Z,133.92
2023-05-14T04:28:48.022Z,134.98
2023-05-14T04:29:48.060Z,135.15
2023-05-14T04:30:48.530Z,134.43
2023-05-14T04:31:48.175Z,136.11
2023-05-14T04:32:48.232Z,134.71
2023-05-14T04:33:48.208Z,135.64
2023-05-14T04:34:48.267Z,135.64
2023-05-14T04:35:48.294Z,133.43
2023-05-14T04:36:48.327Z,133.25
2023-05-14T04:37:48.371Z,133.01
2023-05-14T04:38:48.424Z,134.08
2023-05-14T04:39:48.421Z,131.41
2023-05-14T04:40:48.518Z,129.40
2023-05-14T04:41:48.509Z,129.68
2023-05-14T04:42:48.586Z,128.91
2023-05-14T04:43:48.635Z,131.23
2023-05-14T04:44:48.622Z,128.79
2023-05-14T04:45:48.718Z,133.15
2023-05-14T04:46:48.718Z,128.71
2023-05-14T04:47:48.768Z,129.47
2023-05-14T04:48:48.754Z,127.97
2023-05-14T04:49:48.818Z,130.00
2023-05-14T04:50:48.827Z,126.99
2023-05-14T04:51:48.850Z,127.86
2023-05-14T04:52:48.854Z,129.74
2023-05-14T04:53:48.898Z,130.90
2023-05-14T04:54:48.985Z,129.09
2023-05-14T04:55:48.970Z,130.01
2023-05-14T04:56:48.991Z,128.93
2023-05-14T04:57:48.997Z,126.24
2023-05-14T04:58:49.003Z,130.87
2023-05-14T04:59:49.047Z,129.18
2023-05-14T05:00:49.125Z,130.32
2023-05-14T05:01:49.139Z,129.71
2023-05-14T05:02:49.180Z,131.71
2023-05-14T05:03:49.233Z,131.25
2023-05-14T05:04:49.214Z,132.27
2023-05-14T05:05:49.282Z,130.83
2023-05-14T05:06:49.271Z,131.19
2023-05-14T05:07:49.338Z,130.34
2023-05-14T05:08:49.319Z,131.00
2023-05-14T05:09:49.313Z,127.37
2023-05-14T05:10:49.369Z,128.85
2023-05-14T05:11:49.369Z,130.32
2023-05-14T05:12:49.387Z,130.81
2023-05-14T05:13:49.418Z,132.25
2023-05-14T05:14:49.438Z,132.04
2023-05-14T05:15:49.573Z,130.68
2023-05-14T05:16:49.468Z,132.60
2023-05-14T05:17:49.507Z,132.67
2023-05-14T05:18:49.576Z,134.30
2023-05-14T05:19:49.540Z,132.39
2023-05-14T05:20:50.051Z,132.29
2023-05-14T05:21:49.607Z,133.90
2023-05-14T05:22:49.660Z,133.32
2023-05-14T05:23:49.664Z,131.67
2023-05-14T05:24:50.173Z,133.19
2023-05-14T05:25:49.686Z,133.49
2023-05-14T05:26:50.096Z,132.45
2023-05-14T05:27:49.709Z,134.31
2023-05-14T05:28:49.679Z,131.33
2023-05-14T05:29:49.721Z,136.79
2023-05-14T05:30:49.712Z,134.66
2023-05-14T05:31:50.107Z,135.31
2023-05-14T05:32:49.791Z,135.36
2023-05-14T05:33:49.741Z,135.97
2023-05-14T05:34:49.729Z,131.85
2023-05-14T05:35:49.741Z,134.08
2023-05-14T05:36:50.066Z,132.12
2023-05-14T05:37:49.789Z,135.49
2023-05-14T05:38:49.824Z,133.94
2023-05-14T05:39:49.848Z,133.53
2023-05-14T05:40:49.788Z,138.02
2023-05-14T05:41:49.834Z,135.74
2023-05-14T05:42:49.834Z,137.04
2023-05-14T05:43:49.823Z,133.10
2023-05-14T05:44:49.846Z,136.45
2023-05-14T05:45:49.867Z,136.69
2023-05-14T05:46:50.130Z,135.95
2023-05-14T05:47:49.910Z,133.81
2023-05-14T05:48:49.894Z,137.03
2023-05-14T05:49:49.932Z,134.50
2023-05-14T05:50:49.924Z,136.36
2023-05-14T05:51:50.061Z,136.00
2023-05-14T05:52:49.952Z,133.95
2023-05-14T05:53:49.970Z,133.63
2023-05-14T05:54:50.031Z,133.79
2023-05-14T05:55:50.048Z,134.19
2023-05-14T05:56:50.086Z,134.76
2023-05-14T05:57:50.088Z,138.69
2023-05-14T05:58:50.132Z,136.17
2023-05-14T05:59:50.154Z,137.80
2023-05-14T06:00:50.164Z,139.07
2023-05-14T06:01:50.607Z,137.68
2023-05-14T06:02:50.318Z,136.87
2023-05-14T06:03:50.297Z,136.60
2023-05-14T06:04:50.342Z,136.60
2023-05-14T06:05:50.382Z,138.93
2023-05-14T06:06:50.376Z,135.24
2023-05-14T06:07:50.405Z,136.78
2023-05-14T06:08:50.468Z,136.19
2023-05-14T06:09:50.449Z,138.20
2023-05-14T06:10:50.460Z,137.02
2023-05-14T06:11:50.573Z,136.64
2023-05-14T06:12:50.527Z,138.41
2023-05-14T06:13:50.628Z,137.60
2023-05-14T06:14:50.568Z,138.82
2023-05-14T06:15:50.590Z,133.94
2023-05-14T06:16:50.676Z,138.45
2023-05-14T06:17:50.640Z,135.84
2023-05-14T06:18:50.745Z,137.66
2023-05-14T06:19:50.661Z,136.51
2023-05-14T06:20:50.618Z,134.84
2023-05-14T06:21:50.665Z,136.13
2023-05-14T06:22:50.707Z,137.56
2023-05-14T06:23:50.697Z,136.64
2023-05-14T06:24:50.656Z,138.04
2023-05-14T06:25:50.908Z,139.98
2023-05-14T06:26:50.741Z,138.61
2023-05-14T06:27:50.728Z,138.57
2023-05-14T06:28:50.751Z,137.47
2023-05-14T06:29:50.752Z,139.09
2023-05-14T06:30:50.755Z,138.66
2023-05-14T06:31:50.802Z,138.30
2023-05-14T06:32:50.812Z,139.00
2023-05-14T06:33:50.804Z,137.68
2023-05-14T06:34:50.817Z,138.57
2023-05-14T06:35:50.824Z,139.63
2023-05-14T06:36:50.866Z,138.50
2023-05-14T06:37:50.851Z,138.12
2023-05-14T06:38:50.852Z,138.61
2023-05-14T06:39:50.911Z,138.69
2023-05-14T06:40:50.898Z,141.98
2023-05-14T06:41:50.877Z,140.13
2023-05-14T06:42:50.903Z,142.08
2023-05-14T06:43:50.878Z,140.11
2023-05-14T06:44:50.895Z,141.56
2023-05-14T06:45:50.942Z,139.97
2023-05-14T06:46:50.940Z,141.01
2023-05-14T06:47:51.031Z,141.53
2023-05-14T06:48:51.028Z,141.72
2023-05-14T06:49:51.000Z,140.31
2023-05-14T06:50:51.013Z,140.59
2023-05-14T06:51:51.057Z,140.67
2023-05-14T06:52:51.055Z,142.42
2023-05-14T06:53:51.110Z,140.36
2023-05-14T06:54:51.142Z,142.54
2023-05-14T06:55:51.145Z,138.72
2023-05-14T06:56:51.206Z,139.33
2023-05-14T06:57:51.233Z,141.39
2023-05-14T06:58:51.236Z,143.78
2023-05-14T06:59:51.270Z,140.24
2023-05-14T07:00:51.272Z,140.00
2023-05-14T07:01:51.344Z,140.18
2023-05-14T07:02:51.344Z,142.19
2023-05-14T07:03:51.386Z,143.33
2023-05-14T07:04:51.348Z,140.56
2023-05-14T07:05:51.343Z,140.83
2023-05-14T07:06:51.327Z,141.20
2023-05-14T07:07:51.335Z,142.78
2023-05-14T07:08:51.370Z,143.71
2023-05-14T07:09:51.370Z,140.94
2023-05-14T07:10:51.380Z,139.56
2023-05-14T07:11:51.442Z,143.62
2023-05-14T07:12:51.432Z,139.70
2023-05-14T07:13:51.489Z,140.99
2023-05-14T07:14:51.557Z,142.67
2023-05-14T07:15:51.525Z,140.58
2023-05-14T07:16:51.646Z,140.78
2023-05-14T07:17:51.565Z,142.31
2023-05-14T07:18:51.574Z,141.98
2023-05-14T07:19:51.556Z,142.30
2023-05-14T07:20:51.606Z,142.37
2023-05-14T07:21:51.620Z,141.59
2023-05-14T07:22:51.624Z,141.23
2023-05-14T07:23:51.637Z,142.25
2023-05-14T07:24:51.675Z,143.58
2023-05-14T07:25:51.665Z,142.60
2023-05-14T07:26:51.719Z,143.32
2023-05-14T07:27:51.756Z,143.03
2023-05-14T07:28:51.752Z,142.99
2023-05-14T07:29:51.758Z,142.80
2023-05-14T07:30:51.807Z,144.26
2023-05-14T07:31:51.891Z,144.92
2023-05-14T07:32:51.846Z,144.19
2023-05-14T07:33:51.857Z,144.10
2023-05-14T07:34:51.931Z,144.72
2023-05-14T07:35:51.870Z,144.64
2023-05-14T07:36:51.928Z,143.87
2023-05-14T07:37:51.926Z,145.28
2023-05-14T07:38:51.988Z,145.16
2023-05-14T07:39:52.027Z,142.43
2023-05-14T07:40:52.069Z,144.52
2023-05-14T07:41:52.082Z,143.69
2023-05-14T07:42:52.101Z,146.62
2023-05-14T07:43:52.121Z,146.14
2023-05-14T07:44:52.157Z,144.00
2023-05-14T07:45:52.161Z,147.45
2023-05-14T07:46:52.252Z,146.01
2023-05-14T07:47:52.463Z,145.74
2023-05-14T07:48:52.210Z,144.33
2023-05-14T07:49:52.237Z,141.10
2023-05-14T07:50:52.311Z,143.00
2023-05-14T07:51:52.297Z,144.53
2023-05-14T07:52:52.288Z,145.10
2023-05-14T07:53:52.293Z,144.30
2023-05-14T07:54:52.358Z,146.89
2023-05-14T07:55:52.411Z,145.76
2023-05-14T07:56:52.388Z,146.00
2023-05-14T07:57:52.449Z,146.99
2023-05-14T07:58:52.440Z,143.92
2023-05-14T07:59:52.456Z,149.14
2023-05-14T08:00:52.510Z,148.55
2023-05-14T08:01:52.693Z,149.12
2023-05-14T08:02:52.938Z,147.51
2023-05-14T08:03:52.641Z,146.23
2023-05-14T08:04:52.556Z,145.19
2023-05-14T08:05:52.592Z,147.84
2023-05-14T08:06:52.560Z,146.41
2023-05-14T08:07:52.587Z,144.48
2023-05-14T08:08:52.611Z,146.25
2023-05-14T08:09:52.627Z,146.59
2023-05-14T08:10:52.699Z,148.76
2023-05-14T08:11:52.680Z,149.12
2023-05-14T08:12:52.720Z,149.97
2023-05-14T08:13:52.787Z,148.93
2023-05-14T08:14:52.771Z,147.47
2023-05-14T08:15:52.823Z,147.83
2023-05-14T08:16:52.921Z,147.17
2023-05-14T08:17:52.935Z,148.86
2023-05-14T08:18:52.910Z,149.08
2023-05-14T08:19:52.925Z,149.16
2023-05-14T08:20:52.973Z,146.79
2023-05-14T08:21:52.979Z,150.59
2023-05-14T08:22:52.966Z,149.83
2023-05-14T08:23:53.029Z,149.14
2023-05-14T08:24:53.070Z,148.62
2023-05-14T08:25:53.100Z,150.66
2023-05-14T08:26:53.158Z,150.57
2023-05-14T08:27:53.171Z,152.58
2023-05-14T08:28:53.222Z,151.21
2023-05-14T08:29:53.268Z,152.27
2023-05-14T08:30:53.333Z,152.31
2023-05-14T08:31:53.360Z,152.12
2023-05-14T08:32:53.428Z,152.53
2023-05-14T08:33:53.414Z,152.50
2023-05-14T08:34:53.506Z,154.84
2023-05-14T08:35:53.540Z,153.13
2023-05-14T08:36:53.608Z,153.50
2023-05-14T08:37:53.698Z,154.22
2023-05-14T08:38:53.740Z,153.96
2023-05-14T08:39:53.785Z,153.54
2023-05-14T08:40:53.809Z,152.10
2023-05-14T08:41:54.183Z,154.75
2023-05-14T08:42:53.896Z,152.05
2023-05-14T08:43:53.944Z,153.52
2023-05-14T08:44:54.009Z,154.29
2023-05-14T08:45:54.022Z,155.35
2023-05-14T08:46:54.077Z,153.48
2023-05-14T08:47:54.226Z,155.68
2023-05-14T08:48:54.203Z,155.20
2023-05-14T08:49:54.237Z,157.92
2023-05-14T08:50:54.261Z,152.90
2023-05-14T08:51:54.302Z,153.96
2023-05-14T08:52:54.355Z,153.10
2023-05-14T08:53:54.407Z,156.71
2023-05-14T08:54:54.472Z,155.16
2023-05-14T08:55:54.539Z,155.99
2023-05-14T08:56:54.570Z,157.37
2023-05-14T08:57:54.622Z,155.62
2023-05-14T08:58:54.660Z,156.36
2023-05-14T08:59:54.736Z,156.18
2023-05-14T09:00:54.743Z,157.36
2023-05-14T09:01:55.219Z,156.12
2023-05-14T09:02:54.907Z,158.97
2023-05-14T09:03:54.847Z,158.48
2023-05-14T09:04:54.891Z,157.51
2023-05-14T09:05:54.975Z,158.08
2023-05-14T09:06:55.013Z,157.63
2023-05-14T09:07:55.049Z,157.94
2023-05-14T09:08:55.139Z,156.09
2023-05-14T09:09:55.146Z,158.86
2023-05-14T09:10:55.257Z,160.11
2023-05-14T09:11:55.312Z,158.48
2023-05-14T09:12:55.332Z,160.38
2023-05-14T09:13:55.385Z,161.27
2023-05-14T09:14:55.473Z,160.51
2023-05-14T09:15:55.580Z,162.45
2023-05-14T09:16:55.585Z,162.47
2023-05-14T09:17:55.718Z,160.84
2023-05-14T09:18:55.720Z,160.64
2023-05-14T09:19:55.774Z,161.78
2023-05-14T09:20:55.814Z,161.42
2023-05-14T09:21:56.170Z,160.92
2023-05-14T09:22:55.962Z,162.53
2023-05-14T09:23:56.021Z,160.29
2023-05-14T09:24:56.115Z,162.26
2023-05-14T09:25:56.155Z,162.68
2023-05-14T09:26:56.267Z,161.76
2023-05-14T09:27:58.559Z,161.39
2023-05-14T09:28:56.401Z,163.25
2023-05-14T09:29:56.462Z,161.38
2023-05-14T09:30:56.536Z,160.59
2023-05-14T09:31:56.652Z,160.94
2023-05-14T09:32:56.673Z,160.88
2023-05-14T09:33:56.711Z,161.05
2023-05-14T09:34:56.764Z,163.17
2023-05-14T09:35:58.289Z,163.00
2023-05-14T09:36:56.912Z,160.52
2023-05-14T09:37:56.958Z,160.16
2023-05-14T09:38:57.049Z,162.34
2023-05-14T09:39:57.047Z,162.91
2023-05-14T09:40:57.085Z,164.06
2023-05-14T09:41:57.140Z,164.04
2023-05-14T09:42:57.211Z,164.12
2023-05-14T09:43:57.263Z,163.09
2023-05-14T09:44:57.337Z,161.57
2023-05-14T09:45:57.388Z,159.05
2023-05-14T09:46:57.713Z,163.12
2023-05-14T09:47:57.686Z,162.54
2023-05-14T09:48:57.572Z,165.23
2023-05-14T09:49:57.638Z,162.12
2023-05-14T09:50:57.693Z,164.54
2023-05-14T09:51:58.180Z,165.17
2023-05-14T09:52:57.830Z,163.55
2023-05-14T09:53:57.897Z,163.51
2023-05-14T09:54:57.930Z,162.71
2023-05-14T09:55:58.023Z,163.49
2023-05-14T09:56:58.092Z,162.43
2023-05-14T09:57:58.138Z,164.79
2023-05-14T09:58:58.231Z,164.67
2023-05-14T09:59:58.282Z,165.40
2023-05-14T10:00:58.419Z,163.71
2023-05-14T10:01:58.398Z,164.61
2023-05-14T10:02:58.502Z,165.01
2023-05-14T10:03:58.551Z,164.25
2023-05-14T10:04:58.563Z,165.50
2023-05-14T10:05:58.625Z,166.38
2023-05-14T10:06:58.726Z,162.00
2023-05-14T10:07:59.214Z,165.93
2023-05-14T10:08:58.825Z,164.52
2023-05-14T10:09:59.713Z,167.27
2023-05-14T10:10:58.928Z,165.48
2023-05-14T10:11:59.024Z,165.84
2023-05-14T10:12:59.072Z,166.13
2023-05-14T10:13:59.138Z,167.53
2023-05-14T10:14:59.170Z,166.15
2023-05-14T10:15:59.269Z,165.39
2023-05-14T10:16:59.367Z,164.69
2023-05-14T10:17:59.438Z,166.86
2023-05-14T10:18:59.504Z,165.30
2023-05-14T10:19:59.517Z,167.71
2023-05-14T10:20:59.569Z,166.75
2023-05-14T10:21:59.639Z,166.98
2023-05-14T10:22:59.699Z,165.91
2023-05-14T10:23:59.737Z,167.90
2023-05-14T10:24:59.826Z,169.68
2023-05-14T10:25:59.862Z,168.62
2023-05-14T10:26:59.944Z,165.40
2023-05-14T10:27:59.998Z,168.21
2023-05-14T10:29:00.063Z,167.10
2023-05-14T10:30:00.135Z,164.74
2023-05-14T10:31:00.251Z,167.64
2023-05-14T10:32:00.250Z,168.98
2023-05-14T10:33:00.324Z,165.20
2023-05-14T10:34:00.404Z,166.22
2023-05-14T10:35:00.390Z,165.80
2023-05-14T10:36:00.476Z,165.31
2023-05-14T10:37:00.540Z,167.83
2023-05-14T10:38:00.633Z,165.05
2023-05-14T10:39:00.659Z,166.53
2023-05-14T10:40:00.718Z,166.36
2023-05-14T10:41:00.770Z,168.09
2023-05-14T10:42:00.867Z,164.84
2023-05-14T10:43:00.912Z,167.61
2023-05-14T10:44:00.980Z,165.65
2023-05-14T10:45:01.035Z,167.41
2023-05-14T10:46:01.162Z,166.26
2023-05-14T10:47:01.188Z,168.42
2023-05-14T10:48:01.235Z,166.54
2023-05-14T10:49:01.257Z,168.16
2023-05-14T10:50:01.325Z,168.28
2023-05-14T10:51:01.441Z,167.15
2023-05-14T10:52:01.429Z,166.67
2023-05-14T10:53:01.714Z,165.38
2023-05-14T10:54:01.530Z,168.69
2023-05-14T10:55:03.429Z,167.82
2023-05-14T10:56:01.677Z,167.80
2023-05-14T10:57:01.706Z,167.57
2023-05-14T10:58:01.756Z,166.77
2023-05-14T10:59:01.824Z,168.57
2023-05-14T11:00:01.892Z,166.13
2023-05-14T11:01:01.927Z,168.45
2023-05-14T11:02:02.064Z,168.69
2023-05-14T11:03:02.146Z,167.62
2023-05-14T11:04:02.205Z,169.09
2023-05-14T11:05:02.189Z,167.54
2023-05-14T11:06:02.215Z,167.69
2023-05-14T11:07:02.289Z,167.87
2023-05-14T11:08:02.713Z,167.73
2023-05-14T11:09:02.416Z,166.17
2023-05-14T11:10:02.458Z,167.81
2023-05-14T11:11:02.489Z,167.57
2023-05-14T11:12:02.565Z,166.05
2023-05-14T11:13:02.618Z,168.64
2023-05-14T11:14:02.704Z,164.79
2023-05-14T11:15:02.763Z,169.85
2023-05-14T11:16:15.089Z,168.15
2023-05-14T11:17:03.818Z,168.38
2023-05-14T11:18:03.347Z,167.46
2023-05-14T11:19:02.913Z,168.66
2023-05-14T11:20:02.809Z,169.02
2023-05-14T11:21:02.816Z,166.59
2023-05-14T11:22:02.746Z,167.50
2023-05-14T11:23:02.724Z,170.18
2023-05-14T11:24:02.785Z,171.04
2023-05-14T11:25:02.749Z,170.18
2023-05-14T11:26:02.773Z,167.89
2023-05-14T11:27:02.834Z,167.53
2023-05-14T11:28:03.274Z,167.10
2023-05-14T11:29:02.972Z,168.65
2023-05-14T11:30:02.973Z,169.72
2023-05-14T11:31:03.043Z,166.40
2023-05-14T11:32:03.119Z,169.26
2023-05-14T11:33:03.194Z,168.49
2023-05-14T11:34:03.300Z,167.93
2023-05-14T11:35:03.289Z,170.46
2023-05-14T11:36:03.323Z,170.39
2023-05-14T11:37:03.356Z,168.52
2023-05-14T11:38:03.737Z,173.29
2023-05-14T11:39:03.454Z,169.82
2023-05-14T11:40:03.534Z,169.62
2023-05-14T11:41:03.537Z,170.26
2023-05-14T11:42:03.584Z,169.98
2023-05-14T11:43:03.662Z,166.39
2023-05-14T11:44:03.688Z,168.71
2023-05-14T11:45:03.796Z,168.88
2023-05-14T11:46:03.874Z,168.26
2023-05-14T11:47:03.861Z,169.51
2023-05-14T11:48:04.307Z,171.90
2023-05-14T11:49:03.947Z,170.07
2023-05-14T11:50:04.024Z,172.52
2023-05-14T11:51:04.055Z,172.39
2023-05-14T11:52:04.147Z,172.03
2023-05-14T11:53:04.250Z,172.28
2023-05-14T11:54:04.224Z,173.23
2023-05-14T11:55:04.295Z,171.84
2023-05-14T11:56:04.330Z,170.17
2023-05-14T11:57:04.380Z,172.51
2023-05-14T11:58:04.760Z,172.87
2023-05-14T11:59:04.525Z,172.09
2023-05-14T12:00:04.572Z,173.29
2023-05-14T12:01:04.601Z,172.31
2023-05-14T12:02:04.750Z,170.65
2023-05-14T12:03:04.786Z,172.70
2023-05-14T12:04:04.912Z,171.29
2023-05-14T12:05:04.853Z,175.11
2023-05-14T12:06:04.916Z,172.24
2023-05-14T12:07:04.928Z,174.44
2023-05-14T12:08:05.022Z,172.40
2023-05-14T12:09:05.081Z,175.68
2023-05-14T12:10:05.139Z,173.28
2023-05-14T12:11:05.160Z,174.13
2023-05-14T12:12:05.188Z,176.21
2023-05-14T12:13:05.235Z,171.38
2023-05-14T12:14:05.322Z,174.13
2023-05-14T12:15:05.413Z,173.63
2023-05-14T12:16:05.496Z,175.37
2023-05-14T12:17:05.495Z,171.86
2023-05-14T12:18:16.842Z,173.40
2023-05-14T12:19:06.647Z,173.67
2023-05-14T12:20:05.524Z,174.17
2023-05-14T12:21:05.520Z,174.39
2023-05-14T12:22:05.509Z,175.23
2023-05-14T12:23:05.739Z,174.48
2023-05-14T12:24:05.512Z,175.91
2023-05-14T12:25:05.567Z,174.69
2023-05-14T12:26:05.573Z,174.51
2023-05-14T12:27:05.670Z,177.71
2023-05-14T12:28:05.695Z,179.27
2023-05-14T12:29:05.754Z,175.86